KEAN/EAN METAR and TAF weather

Enter ICAO airport designator
Station Type Date Time Source
KEAN METAR 2021/09/23 18:15 UTC NOAA

KEAN 231815Z AUTO 35011G17KT 10SM CLR 24/M01 A3013 RMK AO2 T02371010


Station Type Date Time Source
KEAN Decoded METAR 2021/09/23 18:15 UTC NOAA

Station name not available
Sep 23, 2021 - 02:15 PM EDT / 2021.09.23 1815 UTC
Wind: from the N (350 degrees) at 13 MPH (11 KT) gusting to 20 MPH (17 KT):0
Visibility: 10 mile(s):0
Sky conditions: clear
Temperature: 74.7 F (23.7 C)
Dew Point: 30.2 F (-1.0 C)
Relative Humidity: 19%
Pressure (altimeter): 30.13 in. Hg (1020 hPa)
ob: KEAN 231815Z AUTO 35011G17KT 10SM CLR 24/M01 A3013 RMK AO2 T02371010
cycle: 18

Station Type Date Time Source
KEAN TAF UTC NOAA

Error!

Example: see airport list